createdAt,value
2023-09-27T00:00:37.829Z,2.85
2023-09-27T00:05:35.136Z,3.08
2023-09-27T00:10:32.016Z,2.88
2023-09-27T00:15:29.351Z,2.60
2023-09-27T00:20:26.406Z,2.85
2023-09-27T00:25:23.314Z,3.75
2023-09-27T00:30:20.552Z,3.70
2023-09-27T00:35:24.485Z,2.75
2023-09-27T00:40:24.385Z,3.47
2023-09-27T00:45:21.530Z,3.53
2023-09-27T00:50:18.636Z,3.13
2023-09-27T00:55:21.387Z,3.30
2023-09-27T01:00:19.587Z,3.53
2023-09-27T01:05:18.259Z,3.08
2023-09-27T01:10:15.825Z,3.70
2023-09-27T01:15:12.857Z,4.05
2023-09-27T01:20:13.909Z,3.50
2023-09-27T01:25:16.386Z,3.53
2023-09-27T01:30:13.228Z,3.42
2023-09-27T01:35:10.139Z,3.13
2023-09-27T01:40:10.593Z,4.03
2023-09-27T01:45:07.909Z,3.63
2023-09-27T01:50:05.065Z,3.50
2023-09-27T01:55:01.952Z,3.30
2023-09-27T01:59:58.877Z,4.10
2023-09-27T02:04:56.217Z,3.25
2023-09-27T02:09:53.040Z,3.08
2023-09-27T02:14:49.793Z,2.92
2023-09-27T02:19:46.581Z,2.92
2023-09-27T02:24:43.290Z,3.20
2023-09-27T02:29:40.102Z,2.72
2023-09-27T02:34:37.259Z,3.03
2023-09-27T02:39:34.324Z,3.28
2023-09-27T02:44:31.446Z,3.00
2023-09-27T02:49:28.350Z,3.47
2023-09-27T02:54:25.500Z,2.97
2023-09-27T02:59:22.382Z,2.50
2023-09-27T03:04:19.185Z,2.42
2023-09-27T03:09:16.346Z,3.08
2023-09-27T03:14:13.140Z,3.00
2023-09-27T03:19:10.633Z,2.88
2023-09-27T03:24:07.910Z,2.25
2023-09-27T03:29:05.922Z,3.55
2023-09-27T03:34:02.664Z,2.80
2023-09-27T03:38:59.391Z,3.15
2023-09-27T03:43:56.354Z,2.88
2023-09-27T03:48:53.426Z,2.72
2023-09-27T03:53:50.527Z,2.95
2023-09-27T03:58:47.409Z,3.22
2023-09-27T04:03:44.726Z,3.17
2023-09-27T04:08:41.529Z,3.22
2023-09-27T04:13:38.344Z,2.83
2023-09-27T04:18:35.367Z,3.53
2023-09-27T04:23:32.201Z,3.10
2023-09-27T04:28:28.970Z,2.95
2023-09-27T04:33:26.093Z,3.10
2023-09-27T04:38:22.967Z,3.70
2023-09-27T04:43:19.895Z,3.88
2023-09-27T04:48:16.990Z,3.13
2023-09-27T04:53:13.832Z,2.50
2023-09-27T04:58:10.576Z,3.45
2023-09-27T05:03:09.177Z,2.83
2023-09-27T05:08:06.522Z,3.30
2023-09-27T05:13:04.992Z,3.40
2023-09-27T05:18:01.895Z,4.28
2023-09-27T05:22:58.701Z,2.88
2023-09-27T05:27:56.338Z,2.80
2023-09-27T05:32:53.381Z,3.10
2023-09-27T05:37:50.649Z,2.95
2023-09-27T05:42:47.475Z,3.65
2023-09-27T05:47:44.512Z,3.40
2023-09-27T05:52:46.305Z,3.55
2023-09-27T05:57:43.192Z,3.67
2023-09-27T06:02:40.052Z,3.85
2023-09-27T06:07:36.920Z,3.15
2023-09-27T06:12:34.022Z,5.28
2023-09-27T06:17:30.864Z,4.53
2023-09-27T06:22:28.780Z,5.60
2023-09-27T06:27:25.694Z,4.55
2023-09-27T06:32:24.275Z,5.40
2023-09-27T06:37:21.293Z,5.25
2023-09-27T06:42:18.441Z,5.57
2023-09-27T06:47:16.047Z,5.15
2023-09-27T06:52:13.826Z,5.93
2023-09-27T06:57:10.546Z,6.03
2023-09-27T07:02:07.691Z,6.78
2023-09-27T07:07:04.432Z,6.25
2023-09-27T07:12:01.665Z,5.90
2023-09-27T07:17:01.463Z,5.30
2023-09-27T07:21:58.528Z,5.07
2023-09-27T07:26:55.767Z,5.15
2023-09-27T07:31:52.608Z,5.25
2023-09-27T07:36:49.600Z,5.32
2023-09-27T07:41:46.539Z,5.00
2023-09-27T07:46:43.453Z,4.47
2023-09-27T07:51:40.309Z,5.35
2023-09-27T07:56:41.768Z,5.45
2023-09-27T08:01:38.775Z,5.25
2023-09-27T08:06:36.033Z,5.38
2023-09-27T08:11:33.318Z,6.85
2023-09-27T08:16:30.887Z,5.68
2023-09-27T08:21:27.680Z,5.55
2023-09-27T08:26:24.746Z,5.00
2023-09-27T08:31:21.612Z,4.43
2023-09-27T08:36:18.437Z,4.43
2023-09-27T08:41:16.889Z,4.18
2023-09-27T08:46:13.792Z,4.03
2023-09-27T08:51:10.725Z,3.60
2023-09-27T08:56:08.224Z,4.00
2023-09-27T09:01:09.440Z,3.35
2023-09-27T09:06:12.384Z,2.33
2023-09-27T09:11:18.248Z,2.63
2023-09-27T09:16:15.514Z,2.55
2023-09-27T09:21:20.132Z,1.90
2023-09-27T09:26:31.546Z,1.98
2023-09-27T09:31:30.113Z,3.00
2023-09-27T09:36:30.464Z,2.20
2023-09-27T09:41:45.462Z,2.53
2023-09-27T09:46:44.126Z,2.10
2023-09-27T09:51:43.113Z,1.40
2023-09-27T09:56:51.227Z,2.60
2023-09-27T10:02:01.338Z,2.30
2023-09-27T10:11:57.955Z,1.90
2023-09-27T10:16:55.469Z,2.13
2023-09-27T10:22:06.646Z,1.40
2023-09-27T10:27:04.201Z,1.40
2023-09-27T10:32:02.583Z,1.88
2023-09-27T10:37:17.376Z,1.48
2023-09-27T10:42:44.327Z,2.13
2023-09-27T10:47:42.141Z,1.65
2023-09-27T10:52:40.184Z,1.65
2023-09-27T10:57:37.028Z,2.22
2023-09-27T11:02:34.435Z,2.30
2023-09-27T11:07:48.338Z,3.63
2023-09-27T11:17:42.179Z,3.85
2023-09-27T11:22:39.128Z,3.20
2023-09-27T11:27:35.933Z,3.15
2023-09-27T11:32:49.808Z,2.75
2023-09-27T11:37:46.707Z,3.08
2023-09-27T11:42:50.657Z,3.50
2023-09-27T11:47:51.885Z,2.88
2023-09-27T11:52:49.162Z,3.30
2023-09-27T11:57:46.120Z,2.47
2023-09-27T12:02:55.672Z,3.10
2023-09-27T12:07:53.922Z,2.75
2023-09-27T12:12:50.866Z,2.20
2023-09-27T12:17:47.715Z,2.83
2023-09-27T12:22:44.785Z,2.00
2023-09-27T12:27:41.789Z,2.17
2023-09-27T12:32:38.695Z,2.05
2023-09-27T12:37:37.068Z,1.90
2023-09-27T12:42:34.085Z,2.08
2023-09-27T12:47:33.240Z,1.83
2023-09-27T12:52:30.204Z,2.00
2023-09-27T12:57:26.986Z,1.70
2023-09-27T13:02:23.966Z,1.80
2023-09-27T13:07:20.860Z,1.67
2023-09-27T13:12:18.096Z,1.55
2023-09-27T13:17:15.052Z,1.60
2023-09-27T13:22:12.622Z,1.90
2023-09-27T13:27:10.130Z,2.05
2023-09-27T13:32:07.184Z,2.03
2023-09-27T13:37:04.221Z,1.88
2023-09-27T13:42:01.248Z,1.55
2023-09-27T13:46:58.329Z,2.25
2023-09-27T13:51:55.247Z,1.80
2023-09-27T13:56:52.097Z,1.60
2023-09-27T14:01:49.551Z,2.20
2023-09-27T14:06:46.928Z,2.33
2023-09-27T14:11:44.213Z,2.33
2023-09-27T14:16:42.121Z,2.05
2023-09-27T14:21:40.533Z,2.10
2023-09-27T14:26:38.063Z,1.77
2023-09-27T14:31:35.303Z,2.40
2023-09-27T14:36:33.982Z,2.05
2023-09-27T14:41:30.851Z,2.92
2023-09-27T14:46:28.001Z,2.20
2023-09-27T14:51:24.941Z,2.65
2023-09-27T14:56:23.170Z,2.53
2023-09-27T15:01:20.356Z,2.58
2023-09-27T15:06:17.283Z,3.05
2023-09-27T15:16:35.616Z,2.30
2023-09-27T15:21:32.567Z,2.75
2023-09-27T15:26:35.384Z,3.25
2023-09-27T15:31:32.664Z,2.80
2023-09-27T15:36:30.418Z,3.33
2023-09-27T15:41:38.261Z,3.70
2023-09-27T15:46:41.203Z,3.38
2023-09-27T15:51:38.966Z,3.40
2023-09-27T15:56:36.000Z,3.47
2023-09-27T16:01:32.756Z,3.00
2023-09-27T16:06:31.345Z,3.70
2023-09-27T16:11:31.403Z,3.78
2023-09-27T16:16:28.673Z,3.28
2023-09-27T16:21:25.470Z,2.72
2023-09-27T16:26:22.734Z,2.90
2023-09-27T16:31:19.590Z,2.63
2023-09-27T16:36:18.235Z,3.00
2023-09-27T16:41:19.333Z,2.33
2023-09-27T16:46:16.468Z,2.95
2023-09-27T16:51:13.245Z,2.53
2023-09-27T16:56:10.016Z,2.70
2023-09-27T17:01:07.059Z,3.33
2023-09-27T17:06:04.677Z,2.63
2023-09-27T17:11:02.258Z,3.08
2023-09-27T17:15:59.141Z,3.35
2023-09-27T17:20:55.939Z,2.50
2023-09-27T17:25:52.726Z,2.75
2023-09-27T17:30:49.755Z,2.90
2023-09-27T17:35:46.818Z,2.30
2023-09-27T17:40:43.765Z,2.55
2023-09-27T17:45:40.637Z,2.08
2023-09-27T17:50:37.817Z,2.05
2023-09-27T17:55:34.785Z,2.00
2023-09-27T18:00:32.100Z,1.80
2023-09-27T18:05:29.578Z,2.05
2023-09-27T18:10:26.374Z,1.98
2023-09-27T18:15:28.091Z,2.17
2023-09-27T18:20:25.591Z,2.58
2023-09-27T18:25:22.857Z,1.98
2023-09-27T18:30:19.679Z,2.95
2023-09-27T18:35:16.870Z,2.05
2023-09-27T18:40:13.756Z,2.08
2023-09-27T18:45:11.189Z,2.22
2023-09-27T18:50:08.261Z,2.42
2023-09-27T18:55:05.517Z,2.53
2023-09-27T19:00:02.315Z,1.90
2023-09-27T19:04:59.248Z,2.00
2023-09-27T19:09:56.242Z,1.23
2023-09-27T19:14:53.316Z,1.30
2023-09-27T19:19:50.132Z,1.17
2023-09-27T19:24:47.008Z,1.70
2023-09-27T19:29:45.565Z,2.05
2023-09-27T19:34:42.400Z,1.42
2023-09-27T19:39:39.163Z,2.10
2023-09-27T19:44:36.817Z,2.42
2023-09-27T19:49:34.355Z,2.55
2023-09-27T19:54:31.187Z,2.60
2023-09-27T19:59:28.218Z,3.00
2023-09-27T20:04:25.082Z,2.78
2023-09-27T20:09:21.902Z,2.95
2023-09-27T20:14:18.737Z,2.55
2023-09-27T20:19:15.953Z,2.22
2023-09-27T20:24:12.713Z,2.92
2023-09-27T20:29:09.475Z,2.95
2023-09-27T20:34:06.596Z,3.28
2023-09-27T20:39:03.482Z,3.92
2023-09-27T20:44:00.578Z,2.92
2023-09-27T20:48:57.688Z,4.28
2023-09-27T20:53:55.520Z,2.95
2023-09-27T20:58:52.608Z,1.73
2023-09-27T21:03:49.444Z,2.60
2023-09-27T21:08:46.244Z,2.92
2023-09-27T21:13:43.292Z,3.75
2023-09-27T21:18:40.105Z,2.72
2023-09-27T21:23:36.848Z,2.58
2023-09-27T21:28:33.685Z,3.22
2023-09-27T21:33:30.441Z,2.70
2023-09-27T21:38:28.081Z,3.05
2023-09-27T21:43:28.718Z,2.10
2023-09-27T21:48:25.572Z,3.25
2023-09-27T21:53:22.724Z,2.65
2023-09-27T21:58:19.513Z,2.63
2023-09-27T22:03:18.646Z,2.33
2023-09-27T22:08:24.612Z,2.47
2023-09-27T22:13:24.328Z,3.70
2023-09-27T22:18:21.752Z,2.20
2023-09-27T22:23:33.384Z,3.47
2023-09-27T22:28:32.482Z,2.22
2023-09-27T22:33:34.463Z,3.17
2023-09-27T22:38:51.127Z,2.20
2023-09-27T22:43:53.817Z,3.22
2023-09-27T22:48:51.774Z,3.20
2023-09-27T22:53:48.640Z,3.55
2023-09-27T22:58:45.940Z,2.70
2023-09-27T23:03:42.860Z,3.25
2023-09-27T23:08:39.729Z,2.38
2023-09-27T23:13:38.037Z,3.00
2023-09-27T23:18:35.394Z,2.33
2023-09-27T23:23:38.268Z,2.25
2023-09-27T23:28:37.884Z,4.25
2023-09-27T23:33:47.375Z,3.08
2023-09-27T23:38:57.301Z,2.17
2023-09-27T23:43:54.400Z,2.67
2023-09-27T23:48:54.118Z,2.10
2023-09-27T23:53:51.921Z,3.42
2023-09-27T23:59:43.954Z,2.92
